Jackpot Winner Ceme

Jackpot hanya dapat di beli di awal sebelum periode tersebut berjalan dan jika berhasil maka anda dapat melihat di sisi kiri bawah atau kiri atas akan terdapat notifikasi bahwa jackpot anda berhasil di beli.

Jika anda membeli jackpot di tengah permainan maka pembelian jackpot akan berlaku untuk periode selanjutnya.

Jackpot dilihat dari gabungan kartu pemain dengan kartu bandar. Bandar harus membeli jackpot sebanyak jumlah player yang sedang duduk. Sebagai contoh bila terdapat 3 pemain duduk bermain, dan bandar memutuskan untuk membeli jackpot Rp 1.000, maka pada periode tersebut bandar akan membeli jackpot sebanyak 3xRp1.000 = Rp3.000.

Jackpot bukanlah suatu keharusan untuk dibeli, namun kami memberikan suatu fitur tambahan untuk member tercinta dari www.ayonaga.co.

Terdapat tiga pilihan harga jackpot yang bisa anda beli yaitu :100,500 dan 1000 rupiah.

Hadiah dari Multi jackpot system www.ayonaga.co

  1. Murni Kecil x 50 harga jackpot yang anda beli.
      (contoH:anda membeli 1000 maka:1000 X 50 = 50.000)
  2. Murni Besar x 50 harga jackpot yang anda beli
      (contoH:anda membeli 1000 maka:1000 X 50 = 50.000)
  3. BALAK x 200 harga jackpot yang anda beli
      (contoH:anda membeli 1000 maka:1000 X 200 = 200.000)
  4. ENAM DEWA x 6666 harga jackpot yang anda beli
      (contoH:anda membeli 1000 maka:1000 X 6666 = 6.666.000)

Demikian adalah penjelasan dari Multi Jackpot www.ayonaga.co terima kasih dan selamat bermain salam hoki dari kami


Jackpot Winner

TOP ENAM DEWA
No. Tanggal Nama Price Win
1 21/03 07:31 LEMANLOTOK murni enam 6,666,000
2 21/03 07:31 WIN333R murni enam 6,666,000
3 21/03 07:23 HENDRA2323 murni enam 6,666,000
4 21/03 07:01 MAHARANY05 murni enam 6,666,000
5 21/03 07:01 RUD22 murni enam 6,666,000
TOP BALAK
No. Tanggal Nama Price Win
1 21/03 08:13 FDB20892 balak 100,000
2 21/03 08:12 BEECIPO balak 20,000
3 21/03 08:12 QUEN76 balak 200,000
4 21/03 08:12 BTA12 balak 20,000
5 21/03 08:11 R06DTUGYJ9 balak 200,000
LATEST JACKPOT
No. Tanggal Nama Price Win
1 21/03 08:14 CKCKGAWOH murni kecil 50,000
2 21/03 08:14 AKYWAE murni kecil 50,000
3 21/03 08:14 IIL777 murni besar 50,000
4 21/03 08:14 DOEL1 murni kecil 50,000
5 21/03 08:14 POPOK1212 murni besar 50,000
6 21/03 08:14 EDI82 murni besar 50,000
7 21/03 08:14 SUGIAJA murni kecil 50,000
8 21/03 08:14 DONCE999 murni kecil 5,000
9 21/03 08:14 SUROTO81 murni kecil 50,000
10 21/03 08:14 KYUNGSOOSE murni kecil 50,000
11 21/03 08:14 VEGA125 murni kecil 50,000
12 21/03 08:13 GIBRAN14 murni kecil 50,000
13 21/03 08:13 TSO52 murni kecil 25,000
14 21/03 08:13 FDB20892 balak 100,000
15 21/03 08:13 BLU234 murni kecil 50,000
16 21/03 08:13 BANGNATA88 murni besar 50,000
17 21/03 08:13 RIHE murni besar 50,000
18 21/03 08:13 G6XXUZ67FI murni besar 50,000
19 21/03 08:13 NDX999 murni kecil 50,000
20 21/03 08:13 PAPA234 murni kecil 5,000
21 21/03 08:13 VANZKA murni besar 25,000
22 21/03 08:13 RIYADI354 murni besar 25,000
23 21/03 08:13 VANZKA murni besar 25,000
24 21/03 08:13 GEMBROTTO murni besar 25,000
25 21/03 08:13 DJISAMSOE murni besar 50,000
26 21/03 08:13 MUSLIMIN90 murni kecil 50,000
27 21/03 08:13 VINO9999 murni kecil 25,000
28 21/03 08:13 JAPRA580 murni besar 50,000
29 21/03 08:12 WHAG4D murni besar 50,000
30 21/03 08:12 KYUNGSOOSE murni kecil 50,000
31 21/03 08:12 HIGHDREAM murni kecil 50,000
32 21/03 08:12 SEE3D0R0R5 murni besar 50,000
33 21/03 08:12 HOPE588 murni besar 50,000
34 21/03 08:12 PARSONDUK murni kecil 50,000
35 21/03 08:12 ZH441ZYBZW murni besar 50,000
36 21/03 08:12 BEECIPO balak 20,000
37 21/03 08:12 ZADUL80 murni besar 50,000
38 21/03 08:12 QUEN76 balak 200,000
39 21/03 08:12 BTA12 balak 20,000
40 21/03 08:11 EKO3K9 murni kecil 5,000
41 21/03 08:11 CEKING02 murni kecil 25,000
42 21/03 08:11 R06DTUGYJ9 balak 200,000
43 21/03 08:11 DUR1AN murni kecil 50,000
44 21/03 08:11 MCGW murni kecil 50,000
45 21/03 08:11 AMROZI005 balak 200,000
46 21/03 08:11 OMPONG02 murni kecil 25,000
47 21/03 08:11 TOTENG123 murni kecil 50,000
48 21/03 08:11 BANGNATA88 murni kecil 50,000
49 21/03 08:11 SEPTIA991 murni kecil 50,000
50 21/03 08:11 KYUNGSOOSE murni kecil 50,000